sensor_id;sensor_type;location;lat;lon;timestamp;P1;durP1;ratioP1;P2;durP2;ratioP2
14153;SDS011;7157;53.144;7.570;2023-11-18T00:10:00;22.75;;;12.43;;
14153;SDS011;7157;53.144;7.570;2023-11-18T00:20:03;21.40;;;12.50;;
14153;SDS011;7157;53.144;7.570;2023-11-18T00:30:12;44.63;;;12.20;;
14153;SDS011;7157;53.144;7.570;2023-11-18T00:40:15;21.65;;;11.20;;
14153;SDS011;7157;53.144;7.570;2023-11-18T00:50:20;23.42;;;10.93;;
14153;SDS011;7157;53.144;7.570;2023-11-18T01:00:23;61.55;;;11.30;;
14153;SDS011;7157;53.144;7.570;2023-11-18T01:10:29;23.63;;;9.90;;
14153;SDS011;7157;53.144;7.570;2023-11-18T01:20:32;61.60;;;10.60;;
14153;SDS011;7157;53.144;7.570;2023-11-18T01:30:36;193.65;;;15.65;;
14153;SDS011;7157;53.144;7.570;2023-11-18T01:40:39;150.82;;;20.92;;
14153;SDS011;7157;53.144;7.570;2023-11-18T01:50:44;297.88;;;18.10;;
14153;SDS011;7157;53.144;7.570;2023-11-18T02:00:48;194.15;;;16.20;;
14153;SDS011;7157;53.144;7.570;2023-11-18T02:10:56;92.93;;;15.15;;
14153;SDS011;7157;53.144;7.570;2023-11-18T02:21:02;125.68;;;11.48;;
14153;SDS011;7157;53.144;7.570;2023-11-18T02:31:12;50.55;;;8.13;;
14153;SDS011;7157;53.144;7.570;2023-11-18T02:41:19;77.97;;;9.90;;
14153;SDS011;7157;53.144;7.570;2023-11-18T02:51:24;56.22;;;8.93;;
14153;SDS011;7157;53.144;7.570;2023-11-18T03:01:27;82.63;;;12.13;;
14153;SDS011;7157;53.144;7.570;2023-11-18T03:11:32;46.95;;;7.95;;
14153;SDS011;7157;53.144;7.570;2023-11-18T03:21:35;46.03;;;8.82;;
14153;SDS011;7157;53.144;7.570;2023-11-18T03:31:42;56.00;;;7.57;;
14153;SDS011;7157;53.144;7.570;2023-11-18T03:41:46;78.88;;;8.45;;
14153;SDS011;7157;53.144;7.570;2023-11-18T03:51:50;131.35;;;10.48;;
14153;SDS011;7157;53.144;7.570;2023-11-18T04:01:52;39.22;;;7.63;;
14153;SDS011;7157;53.144;7.570;2023-11-18T04:11:57;118.47;;;8.93;;
14153;SDS011;7157;53.144;7.570;2023-11-18T04:22:00;75.10;;;9.95;;
14153;SDS011;7157;53.144;7.570;2023-11-18T04:32:05;114.85;;;11.68;;
14153;SDS011;7157;53.144;7.570;2023-11-18T04:42:09;112.53;;;10.73;;
14153;SDS011;7157;53.144;7.570;2023-11-18T04:52:14;63.80;;;9.55;;
14153;SDS011;7157;53.144;7.570;2023-11-18T05:02:16;58.97;;;11.00;;
14153;SDS011;7157;53.144;7.570;2023-11-18T05:12:22;24.27;;;8.73;;
14153;SDS011;7157;53.144;7.570;2023-11-18T05:22:25;46.70;;;10.88;;
14153;SDS011;7157;53.144;7.570;2023-11-18T05:32:29;53.65;;;9.70;;
14153;SDS011;7157;53.144;7.570;2023-11-18T05:42:32;86.22;;;10.82;;
14153;SDS011;7157;53.144;7.570;2023-11-18T05:52:42;80.70;;;11.52;;
14153;SDS011;7157;53.144;7.570;2023-11-18T06:02:45;50.60;;;10.73;;
14153;SDS011;7157;53.144;7.570;2023-11-18T06:12:49;32.22;;;11.38;;
14153;SDS011;7157;53.144;7.570;2023-11-18T06:22:52;33.08;;;11.00;;
14153;SDS011;7157;53.144;7.570;2023-11-18T06:32:57;21.17;;;11.73;;
14153;SDS011;7157;53.144;7.570;2023-11-18T06:42:59;25.17;;;11.65;;
14153;SDS011;7157;53.144;7.570;2023-11-18T06:53:05;26.15;;;11.88;;
14153;SDS011;7157;53.144;7.570;2023-11-18T07:03:09;25.35;;;10.55;;
14153;SDS011;7157;53.144;7.570;2023-11-18T07:13:14;24.48;;;10.10;;
14153;SDS011;7157;53.144;7.570;2023-11-18T07:23:17;29.70;;;13.95;;
14153;SDS011;7157;53.144;7.570;2023-11-18T07:33:22;33.53;;;13.35;;
14153;SDS011;7157;53.144;7.570;2023-11-18T07:43:24;32.83;;;14.13;;
14153;SDS011;7157;53.144;7.570;2023-11-18T07:53:31;34.78;;;15.05;;
14153;SDS011;7157;53.144;7.570;2023-11-18T08:03:34;41.65;;;15.27;;
14153;SDS011;7157;53.144;7.570;2023-11-18T08:13:40;35.75;;;15.82;;
14153;SDS011;7157;53.144;7.570;2023-11-18T08:23:42;35.15;;;14.68;;
14153;SDS011;7157;53.144;7.570;2023-11-18T08:33:47;33.60;;;14.60;;
14153;SDS011;7157;53.144;7.570;2023-11-18T08:43:50;37.15;;;15.23;;
14153;SDS011;7157;53.144;7.570;2023-11-18T08:53:54;37.03;;;12.75;;
14153;SDS011;7157;53.144;7.570;2023-11-18T09:03:57;35.53;;;13.82;;
14153;SDS011;7157;53.144;7.570;2023-11-18T09:14:04;40.92;;;16.02;;
14153;SDS011;7157;53.144;7.570;2023-11-18T09:24:08;32.60;;;14.10;;
14153;SDS011;7157;53.144;7.570;2023-11-18T09:34:16;30.73;;;13.68;;
14153;SDS011;7157;53.144;7.570;2023-11-18T09:44:19;36.60;;;14.45;;
14153;SDS011;7157;53.144;7.570;2023-11-18T09:54:27;39.42;;;14.32;;
14153;SDS011;7157;53.144;7.570;2023-11-18T10:04:37;31.60;;;13.93;;
14153;SDS011;7157;53.144;7.570;2023-11-18T10:14:42;28.80;;;11.02;;
14153;SDS011;7157;53.144;7.570;2023-11-18T10:24:45;28.58;;;12.13;;
14153;SDS011;7157;53.144;7.570;2023-11-18T10:34:49;27.80;;;11.57;;
14153;SDS011;7157;53.144;7.570;2023-11-18T10:44:56;31.08;;;12.77;;
14153;SDS011;7157;53.144;7.570;2023-11-18T10:55:01;26.80;;;12.23;;
14153;SDS011;7157;53.144;7.570;2023-11-18T11:05:15;29.65;;;12.75;;
14153;SDS011;7157;53.144;7.570;2023-11-18T11:15:41;27.42;;;12.23;;
14153;SDS011;7157;53.144;7.570;2023-11-18T11:26:00;18.63;;;9.05;;
14153;SDS011;7157;53.144;7.570;2023-11-18T11:36:12;27.10;;;12.35;;
14153;SDS011;7157;53.144;7.570;2023-11-18T11:46:24;30.95;;;13.32;;
14153;SDS011;7157;53.144;7.570;2023-11-18T11:56:39;34.35;;;13.55;;
14153;SDS011;7157;53.144;7.570;2023-11-18T12:06:43;28.02;;;11.15;;
14153;SDS011;7157;53.144;7.570;2023-11-18T12:16:59;30.63;;;12.82;;
14153;SDS011;7157;53.144;7.570;2023-11-18T12:27:13;20.58;;;9.77;;
14153;SDS011;7157;53.144;7.570;2023-11-18T12:37:32;20.45;;;9.25;;
14153;SDS011;7157;53.144;7.570;2023-11-18T12:48:00;23.05;;;11.82;;
14153;SDS011;7157;53.144;7.570;2023-11-18T12:58:15;22.60;;;10.82;;
14153;SDS011;7157;53.144;7.570;2023-11-18T13:08:19;27.10;;;10.73;;
14153;SDS011;7157;53.144;7.570;2023-11-18T13:18:25;29.52;;;12.70;;
14153;SDS011;7157;53.144;7.570;2023-11-18T13:28:29;17.52;;;7.35;;
14153;SDS011;7157;53.144;7.570;2023-11-18T13:38:33;29.35;;;12.40;;
14153;SDS011;7157;53.144;7.570;2023-11-18T13:48:36;37.95;;;10.82;;
14153;SDS011;7157;53.144;7.570;2023-11-18T13:58:43;28.52;;;12.32;;
14153;SDS011;7157;53.144;7.570;2023-11-18T14:08:50;23.85;;;11.77;;
14153;SDS011;7157;53.144;7.570;2023-11-18T14:18:55;20.38;;;9.70;;
14153;SDS011;7157;53.144;7.570;2023-11-18T14:28:58;26.77;;;11.57;;
14153;SDS011;7157;53.144;7.570;2023-11-18T14:39:02;27.48;;;12.95;;
14153;SDS011;7157;53.144;7.570;2023-11-18T14:49:05;19.10;;;9.85;;
14153;SDS011;7157;53.144;7.570;2023-11-18T14:59:09;29.08;;;12.48;;
14153;SDS011;7157;53.144;7.570;2023-11-18T15:09:13;31.30;;;13.25;;
14153;SDS011;7157;53.144;7.570;2023-11-18T15:19:17;20.92;;;9.02;;
14153;SDS011;7157;53.144;7.570;2023-11-18T15:29:20;26.65;;;12.18;;
14153;SDS011;7157;53.144;7.570;2023-11-18T15:39:31;17.30;;;7.43;;
14153;SDS011;7157;53.144;7.570;2023-11-18T15:49:33;22.20;;;9.60;;
14153;SDS011;7157;53.144;7.570;2023-11-18T15:59:38;18.40;;;8.10;;
14153;SDS011;7157;53.144;7.570;2023-11-18T16:09:40;18.17;;;7.60;;
14153;SDS011;7157;53.144;7.570;2023-11-18T16:19:45;19.95;;;7.25;;
14153;SDS011;7157;53.144;7.570;2023-11-18T16:29:48;12.88;;;6.88;;
14153;SDS011;7157;53.144;7.570;2023-11-18T16:39:52;21.40;;;8.43;;
14153;SDS011;7157;53.144;7.570;2023-11-18T16:49:55;13.70;;;6.07;;
14153;SDS011;7157;53.144;7.570;2023-11-18T17:00:06;16.05;;;7.72;;
14153;SDS011;7157;53.144;7.570;2023-11-18T17:10:17;15.02;;;7.35;;
14153;SDS011;7157;53.144;7.570;2023-11-18T17:20:21;15.60;;;6.68;;
14153;SDS011;7157;53.144;7.570;2023-11-18T17:30:24;13.88;;;6.90;;
14153;SDS011;7157;53.144;7.570;2023-11-18T17:40:34;14.95;;;6.55;;
14153;SDS011;7157;53.144;7.570;2023-11-18T17:50:37;10.80;;;5.53;;
14153;SDS011;7157;53.144;7.570;2023-11-18T18:00:41;16.17;;;6.00;;
14153;SDS011;7157;53.144;7.570;2023-11-18T18:10:44;12.25;;;4.80;;
14153;SDS011;7157;53.144;7.570;2023-11-18T18:20:48;9.85;;;5.03;;
14153;SDS011;7157;53.144;7.570;2023-11-18T18:30:51;12.30;;;6.30;;
14153;SDS011;7157;53.144;7.570;2023-11-18T18:40:56;11.32;;;5.93;;
14153;SDS011;7157;53.144;7.570;2023-11-18T18:50:58;7.53;;;4.45;;
14153;SDS011;7157;53.144;7.570;2023-11-18T19:01:07;10.02;;;5.05;;
14153;SDS011;7157;53.144;7.570;2023-11-18T19:11:11;7.47;;;4.40;;
14153;SDS011;7157;53.144;7.570;2023-11-18T19:21:15;5.30;;;3.13;;
14153;SDS011;7157;53.144;7.570;2023-11-18T19:31:17;8.82;;;5.13;;
14153;SDS011;7157;53.144;7.570;2023-11-18T19:41:21;8.95;;;5.03;;
14153;SDS011;7157;53.144;7.570;2023-11-18T19:51:24;7.85;;;4.32;;
14153;SDS011;7157;53.144;7.570;2023-11-18T20:01:28;11.15;;;6.78;;
14153;SDS011;7157;53.144;7.570;2023-11-18T20:11:31;10.10;;;5.85;;
14153;SDS011;7157;53.144;7.570;2023-11-18T20:21:35;12.00;;;7.18;;
14153;SDS011;7157;53.144;7.570;2023-11-18T20:31:39;10.18;;;6.03;;
14153;SDS011;7157;53.144;7.570;2023-11-18T20:41:43;11.07;;;6.20;;
14153;SDS011;7157;53.144;7.570;2023-11-18T20:51:46;12.05;;;5.35;;
14153;SDS011;7157;53.144;7.570;2023-11-18T21:01:50;8.73;;;5.65;;
14153;SDS011;7157;53.144;7.570;2023-11-18T21:11:53;10.32;;;6.68;;
14153;SDS011;7157;53.144;7.570;2023-11-18T21:22:20;10.82;;;6.63;;
14153;SDS011;7157;53.144;7.570;2023-11-18T21:32:24;12.30;;;6.65;;
14153;SDS011;7157;53.144;7.570;2023-11-18T21:42:28;11.80;;;7.53;;
14153;SDS011;7157;53.144;7.570;2023-11-18T21:52:32;11.95;;;7.28;;
14153;SDS011;7157;53.144;7.570;2023-11-18T22:02:36;11.90;;;7.53;;
14153;SDS011;7157;53.144;7.570;2023-11-18T22:12:40;11.15;;;7.07;;
14153;SDS011;7157;53.144;7.570;2023-11-18T22:22:44;13.05;;;7.82;;
14153;SDS011;7157;53.144;7.570;2023-11-18T22:32:50;13.68;;;8.52;;
14153;SDS011;7157;53.144;7.570;2023-11-18T22:42:57;11.70;;;6.80;;
14153;SDS011;7157;53.144;7.570;2023-11-18T22:52:59;18.83;;;9.55;;
14153;SDS011;7157;53.144;7.570;2023-11-18T23:03:03;18.23;;;9.50;;
14153;SDS011;7157;53.144;7.570;2023-11-18T23:13:08;19.80;;;9.30;;
14153;SDS011;7157;53.144;7.570;2023-11-18T23:23:14;20.95;;;11.23;;
14153;SDS011;7157;53.144;7.570;2023-11-18T23:33:18;21.48;;;11.30;;
14153;SDS011;7157;53.144;7.570;2023-11-18T23:43:26;23.75;;;12.25;;
14153;SDS011;7157;53.144;7.570;2023-11-18T23:53:30;22.25;;;12.05;;
